createdAt,value
2023-04-16T00:00:17.647Z,13.82
2023-04-16T00:02:44.110Z,11.63
2023-04-16T00:05:10.745Z,13.18
2023-04-16T00:07:37.362Z,9.55
2023-04-16T00:10:03.825Z,14.80
2023-04-16T00:12:30.267Z,15.15
2023-04-16T00:14:56.561Z,16.02
2023-04-16T00:17:22.848Z,14.63
2023-04-16T00:19:49.129Z,14.07
2023-04-16T00:22:15.441Z,20.23
2023-04-16T00:24:42.113Z,10.40
2023-04-16T00:27:08.497Z,10.00
2023-04-16T00:29:34.910Z,13.45
2023-04-16T00:32:01.196Z,12.00
2023-04-16T00:34:27.426Z,9.82
2023-04-16T00:36:53.734Z,12.07
2023-04-16T00:39:20.049Z,12.35
2023-04-16T00:41:46.366Z,6.72
2023-04-16T00:44:12.685Z,9.25
2023-04-16T00:46:39.111Z,11.98
2023-04-16T00:49:05.505Z,11.93
2023-04-16T00:51:32.169Z,15.10
2023-04-16T00:53:58.422Z,10.07
2023-04-16T00:56:24.922Z,16.83
2023-04-16T00:58:51.411Z,13.10
2023-04-16T01:01:17.724Z,8.13
2023-04-16T01:03:45.040Z,15.45
2023-04-16T01:06:11.924Z,17.65
2023-04-16T01:08:38.392Z,14.00
2023-04-16T01:11:04.847Z,11.30
2023-04-16T01:13:31.457Z,18.65
2023-04-16T01:15:57.834Z,15.25
2023-04-16T01:18:24.752Z,12.27
2023-04-16T01:20:51.368Z,19.15
2023-04-16T01:23:21.357Z,22.70
2023-04-16T01:25:47.717Z,15.82
2023-04-16T01:28:14.011Z,14.07
2023-04-16T01:30:40.313Z,16.83
2023-04-16T01:33:07.196Z,21.50
2023-04-16T01:35:33.500Z,15.13
2023-04-16T01:37:59.818Z,11.85
2023-04-16T01:40:26.072Z,15.65
2023-04-16T01:42:52.386Z,19.45
2023-04-16T01:45:18.668Z,17.05
2023-04-16T01:47:45.025Z,15.70
2023-04-16T01:50:11.394Z,20.92
2023-04-16T01:52:37.734Z,20.13
2023-04-16T01:55:04.151Z,20.63
2023-04-16T01:57:30.824Z,26.08
2023-04-16T01:59:57.145Z,22.33
2023-04-16T02:02:28.216Z,24.30
2023-04-16T02:04:55.228Z,21.33
2023-04-16T02:07:21.626Z,19.85
2023-04-16T02:09:47.968Z,24.52
2023-04-16T02:12:14.344Z,17.35
2023-04-16T02:14:41.201Z,17.63
2023-04-16T02:17:07.525Z,32.40
2023-04-16T02:19:33.785Z,26.13
2023-04-16T02:22:01.606Z,28.33
2023-04-16T02:24:27.880Z,19.38
2023-04-16T02:26:54.684Z,27.80
2023-04-16T02:29:22.462Z,24.58
2023-04-16T02:31:49.189Z,25.88
2023-04-16T02:34:15.531Z,24.95
2023-04-16T02:36:41.830Z,20.98
2023-04-16T02:39:08.401Z,32.30
2023-04-16T02:41:34.847Z,26.83
2023-04-16T02:44:01.347Z,24.77
2023-04-16T02:46:27.658Z,24.08
2023-04-16T02:48:54.008Z,27.88
2023-04-16T02:51:20.271Z,23.67
2023-04-16T02:53:46.612Z,26.60
2023-04-16T02:56:13.059Z,27.50
2023-04-16T02:58:39.375Z,26.30
2023-04-16T03:01:05.637Z,22.95
2023-04-16T03:03:31.908Z,26.65
2023-04-16T03:05:58.188Z,31.15
2023-04-16T03:08:24.468Z,23.67
2023-04-16T03:10:50.776Z,35.45
2023-04-16T03:13:17.104Z,26.25
2023-04-16T03:15:47.888Z,29.35
2023-04-16T03:18:14.180Z,30.05
2023-04-16T03:20:40.489Z,28.08
2023-04-16T03:23:06.739Z,30.10
2023-04-16T03:25:33.077Z,44.03
2023-04-16T03:27:59.324Z,40.33
2023-04-16T03:30:25.764Z,22.40
2023-04-16T03:32:52.201Z,32.17
2023-04-16T03:35:18.708Z,37.53
2023-04-16T03:37:45.048Z,30.98
2023-04-16T03:40:11.526Z,32.75
2023-04-16T03:42:37.792Z,29.33
2023-04-16T03:45:04.281Z,36.03
2023-04-16T03:47:30.580Z,27.85
2023-04-16T03:49:56.833Z,28.65
2023-04-16T03:52:23.072Z,26.70
2023-04-16T03:54:49.358Z,30.55
2023-04-16T03:57:15.708Z,23.08
2023-04-16T03:59:42.038Z,28.55
2023-04-16T04:02:08.393Z,27.35
2023-04-16T04:04:34.871Z,28.67
2023-04-16T04:07:01.315Z,31.10
2023-04-16T04:09:27.638Z,28.77
2023-04-16T04:11:53.972Z,30.23
2023-04-16T04:14:20.378Z,34.88
2023-04-16T04:16:46.810Z,35.13
2023-04-16T04:19:13.258Z,23.05
2023-04-16T04:21:39.497Z,29.35
2023-04-16T04:24:06.027Z,35.72
2023-04-16T04:26:32.381Z,32.85
2023-04-16T04:28:58.738Z,33.10
2023-04-16T04:31:25.036Z,27.08
2023-04-16T04:33:51.325Z,36.28
2023-04-16T04:36:17.635Z,36.38
2023-04-16T04:38:43.896Z,30.13
2023-04-16T04:41:10.184Z,30.65
2023-04-16T04:43:36.580Z,34.30
2023-04-16T04:46:02.863Z,35.38
2023-04-16T04:48:29.159Z,34.22
2023-04-16T04:50:55.464Z,33.30
2023-04-16T04:53:21.805Z,32.35
2023-04-16T04:55:52.152Z,35.63
2023-04-16T04:58:20.260Z,29.38
2023-04-16T05:00:46.584Z,27.80
2023-04-16T05:03:13.055Z,35.42
2023-04-16T05:05:40.652Z,38.53
2023-04-16T05:08:07.131Z,40.90
2023-04-16T05:10:33.446Z,31.90
2023-04-16T05:12:59.677Z,34.30
2023-04-16T05:15:26.135Z,34.47
2023-04-16T05:17:52.487Z,31.58
2023-04-16T05:20:18.801Z,38.35
2023-04-16T05:22:45.270Z,35.95
2023-04-16T05:25:11.512Z,40.70
2023-04-16T05:27:38.300Z,39.78
2023-04-16T05:30:04.759Z,31.98
2023-04-16T05:32:31.157Z,26.05
2023-04-16T05:34:57.444Z,35.42
2023-04-16T05:37:23.704Z,40.65
2023-04-16T05:39:50.000Z,51.63
2023-04-16T05:42:16.317Z,38.45
2023-04-16T05:44:42.643Z,41.83
2023-04-16T05:47:09.398Z,45.28
2023-04-16T05:49:37.193Z,40.30
2023-04-16T05:52:04.218Z,32.83
2023-04-16T05:54:30.469Z,33.45
2023-04-16T05:56:56.726Z,33.40
2023-04-16T05:59:23.076Z,45.80
2023-04-16T06:01:49.376Z,35.03
2023-04-16T06:04:15.840Z,43.13
2023-04-16T06:06:42.402Z,35.78
2023-04-16T06:09:08.967Z,38.40
2023-04-16T06:11:36.406Z,40.10
2023-04-16T06:14:02.846Z,44.05
2023-04-16T06:16:29.184Z,43.60
2023-04-16T06:18:55.671Z,33.45
2023-04-16T06:21:22.144Z,33.67
2023-04-16T06:23:48.479Z,34.42
2023-04-16T06:26:14.719Z,35.20
2023-04-16T06:28:40.931Z,34.60
2023-04-16T06:31:07.206Z,33.58
2023-04-16T06:33:33.495Z,42.80
2023-04-16T06:35:59.736Z,43.90
2023-04-16T06:38:25.961Z,47.58
2023-04-16T06:40:52.280Z,44.67
2023-04-16T06:43:18.607Z,48.75
2023-04-16T06:45:44.888Z,45.72
2023-04-16T06:48:11.144Z,42.75
2023-04-16T06:50:37.692Z,39.88
2023-04-16T06:53:03.959Z,36.50
2023-04-16T06:55:30.307Z,39.97
2023-04-16T06:57:56.796Z,37.97
2023-04-16T07:00:23.027Z,37.85
2023-04-16T07:02:49.510Z,44.00
2023-04-16T07:05:16.066Z,42.03
2023-04-16T07:07:42.396Z,43.08
2023-04-16T07:10:08.851Z,35.60
2023-04-16T07:12:35.306Z,36.72
2023-04-16T07:15:01.605Z,38.85
2023-04-16T07:17:28.002Z,35.75
2023-04-16T07:19:54.285Z,41.33
2023-04-16T07:22:20.664Z,42.40
2023-04-16T07:24:46.998Z,39.28
2023-04-16T07:27:13.406Z,41.25
2023-04-16T07:29:39.878Z,36.47
2023-04-16T07:32:06.326Z,37.20
2023-04-16T07:34:32.674Z,37.50
2023-04-16T07:36:59.055Z,37.95
2023-04-16T07:39:25.332Z,32.85
2023-04-16T07:41:51.646Z,37.90
2023-04-16T07:44:17.992Z,31.33
2023-04-16T07:46:47.325Z,30.23
2023-04-16T07:49:14.168Z,37.40
2023-04-16T07:51:40.529Z,28.10
2023-04-16T07:54:06.885Z,26.08
2023-04-16T07:56:33.177Z,28.48
2023-04-16T07:59:14.484Z,34.88
2023-04-16T08:01:46.008Z,33.70
2023-04-16T08:04:12.410Z,36.10
2023-04-16T08:06:38.894Z,33.20
2023-04-16T08:09:05.216Z,31.35
2023-04-16T08:11:31.516Z,26.20
2023-04-16T08:13:57.812Z,27.30
2023-04-16T08:16:24.263Z,29.95
2023-04-16T08:18:50.857Z,29.65
2023-04-16T08:21:17.112Z,28.30
2023-04-16T08:23:43.403Z,22.25
2023-04-16T08:26:09.688Z,26.35
2023-04-16T08:28:35.914Z,24.05
2023-04-16T08:31:02.247Z,22.40
2023-04-16T08:33:28.615Z,22.67
2023-04-16T08:35:54.943Z,23.88
2023-04-16T08:38:21.187Z,20.65
2023-04-16T08:40:47.662Z,19.60
2023-04-16T08:43:14.784Z,14.40
2023-04-16T08:45:42.749Z,21.63
2023-04-16T08:48:11.305Z,15.35
2023-04-16T08:50:37.587Z,18.05
2023-04-16T08:53:06.134Z,19.83
2023-04-16T08:55:36.415Z,15.38
2023-04-16T08:58:04.148Z,13.32
2023-04-16T09:00:31.535Z,20.45
2023-04-16T09:02:58.186Z,16.27
2023-04-16T09:05:26.238Z,15.88
2023-04-16T09:07:52.927Z,13.98
2023-04-16T09:10:19.806Z,13.25
2023-04-16T09:12:46.172Z,13.85
2023-04-16T09:15:13.063Z,14.07
2023-04-16T09:17:40.054Z,16.70
2023-04-16T09:20:08.704Z,11.05
2023-04-16T09:22:35.754Z,15.85
2023-04-16T09:25:02.025Z,11.73
2023-04-16T09:27:28.323Z,7.70
2023-04-16T09:29:54.595Z,13.40
2023-04-16T09:32:24.940Z,10.88
2023-04-16T09:34:58.138Z,7.70
2023-04-16T09:37:25.518Z,12.57
2023-04-16T09:39:57.951Z,14.65
2023-04-16T09:42:25.211Z,12.35
2023-04-16T09:44:52.385Z,8.75
2023-04-16T09:47:18.867Z,10.23
2023-04-16T09:49:45.347Z,10.32
2023-04-16T09:52:18.642Z,12.98
2023-04-16T09:54:51.557Z,12.10
2023-04-16T09:57:21.932Z,13.23
2023-04-16T09:59:49.141Z,12.07
2023-04-16T10:02:16.590Z,9.30
2023-04-16T10:04:46.297Z,15.05
2023-04-16T10:07:13.279Z,13.93
2023-04-16T10:09:39.769Z,15.20
2023-04-16T10:12:06.804Z,12.40
2023-04-16T10:14:33.921Z,16.63
2023-04-16T10:17:00.723Z,14.05
2023-04-16T10:19:27.320Z,15.35
2023-04-16T10:21:54.672Z,11.60
2023-04-16T10:24:21.033Z,25.67
2023-04-16T10:26:47.549Z,19.48
2023-04-16T10:29:13.831Z,14.82
2023-04-16T10:31:40.421Z,20.42
2023-04-16T10:34:07.680Z,24.20
2023-04-16T10:36:36.865Z,18.95
2023-04-16T10:39:03.191Z,24.40
2023-04-16T10:41:32.112Z,20.83
2023-04-16T10:44:11.257Z,20.38
2023-04-16T10:46:41.824Z,18.27
2023-04-16T10:51:35.880Z,28.30
2023-04-16T10:54:19.704Z,24.10
2023-04-16T10:56:46.833Z,18.58
2023-04-16T10:59:13.674Z,23.10
2023-04-16T11:01:43.463Z,18.70
2023-04-16T11:04:22.470Z,24.97
2023-04-16T11:07:09.141Z,26.17
2023-04-16T11:09:49.628Z,22.65
2023-04-16T11:12:37.295Z,18.20
2023-04-16T11:15:05.518Z,26.52
2023-04-16T11:17:37.778Z,28.35
2023-04-16T11:20:19.089Z,30.40
2023-04-16T11:22:46.977Z,26.60
2023-04-16T11:25:13.311Z,32.03
2023-04-16T11:27:39.578Z,25.63
2023-04-16T11:30:08.201Z,24.55
2023-04-16T11:32:35.101Z,32.47
2023-04-16T11:35:04.365Z,27.85
2023-04-16T11:37:34.705Z,25.15
2023-04-16T11:40:01.548Z,17.50
2023-04-16T11:42:28.510Z,25.90
2023-04-16T11:44:56.089Z,17.85
2023-04-16T11:47:25.485Z,26.33
2023-04-16T11:49:51.973Z,20.92
2023-04-16T11:52:33.766Z,20.88
2023-04-16T11:55:00.140Z,21.38
2023-04-16T11:57:27.504Z,25.67
2023-04-16T12:00:02.473Z,22.85
2023-04-16T12:02:36.477Z,25.27
2023-04-16T12:05:03.774Z,24.27
2023-04-16T12:07:30.230Z,20.38
2023-04-16T12:10:07.315Z,24.35
2023-04-16T12:12:34.862Z,27.58
2023-04-16T12:15:05.402Z,27.85
2023-04-16T12:19:59.246Z,23.08
2023-04-16T12:22:36.481Z,22.13
2023-04-16T12:25:07.065Z,20.45
2023-04-16T12:27:47.074Z,21.85
2023-04-16T12:30:14.287Z,23.75
2023-04-16T12:32:41.726Z,20.80
2023-04-16T12:35:09.145Z,20.80
2023-04-16T12:37:35.886Z,18.13
2023-04-16T12:40:02.305Z,23.60
2023-04-16T12:42:34.910Z,21.90
2023-04-16T12:45:02.104Z,18.23
2023-04-16T12:47:28.434Z,19.90
2023-04-16T12:49:55.768Z,21.60
2023-04-16T12:52:23.818Z,17.30
2023-04-16T12:54:50.427Z,23.63
2023-04-16T12:57:16.792Z,22.38
2023-04-16T12:59:43.020Z,23.52
2023-04-16T13:02:09.369Z,18.95
2023-04-16T13:04:36.170Z,21.55
2023-04-16T13:07:02.499Z,17.88
2023-04-16T13:09:28.817Z,18.33
2023-04-16T13:11:55.118Z,24.08
2023-04-16T13:14:21.564Z,21.08
2023-04-16T13:16:47.847Z,26.63
2023-04-16T13:19:15.809Z,20.85
2023-04-16T13:21:42.113Z,23.23
2023-04-16T13:24:08.386Z,23.65
2023-04-16T13:26:34.639Z,30.05
2023-04-16T13:29:01.042Z,27.20
2023-04-16T13:31:27.432Z,29.92
2023-04-16T13:33:53.796Z,32.65
2023-04-16T13:36:20.222Z,28.13
2023-04-16T13:38:46.500Z,33.53
2023-04-16T13:41:13.012Z,43.53
2023-04-16T13:43:39.314Z,40.45
2023-04-16T13:46:05.794Z,35.63
2023-04-16T13:48:32.744Z,29.73
2023-04-16T13:50:59.001Z,32.20
2023-04-16T13:53:25.353Z,34.97
2023-04-16T13:55:51.793Z,37.88
2023-04-16T13:58:18.165Z,36.00
2023-04-16T14:00:44.502Z,36.47
2023-04-16T14:03:11.105Z,26.52
2023-04-16T14:05:37.436Z,35.70
2023-04-16T14:08:03.782Z,29.73
2023-04-16T14:10:30.708Z,28.05
2023-04-16T14:12:57.378Z,25.40
2023-04-16T14:15:26.251Z,24.17
2023-04-16T14:17:52.609Z,26.40
2023-04-16T14:20:19.030Z,30.13
2023-04-16T14:22:46.590Z,25.48
2023-04-16T14:25:12.891Z,27.10
2023-04-16T14:27:39.161Z,27.52
2023-04-16T14:30:06.305Z,23.38
2023-04-16T14:32:32.661Z,29.35
2023-04-16T14:34:59.003Z,23.05
2023-04-16T14:37:26.196Z,20.90
2023-04-16T14:39:52.436Z,24.60
2023-04-16T14:42:18.769Z,22.08
2023-04-16T14:44:46.212Z,22.08
2023-04-16T14:47:12.602Z,27.55
2023-04-16T14:49:38.903Z,23.75
2023-04-16T14:52:05.795Z,25.35
2023-04-16T14:54:33.083Z,26.30
2023-04-16T14:56:59.475Z,24.67
2023-04-16T14:59:25.789Z,31.55
2023-04-16T15:01:52.477Z,21.98
2023-04-16T15:04:19.006Z,20.25
2023-04-16T15:06:46.547Z,20.40
2023-04-16T15:09:13.183Z,27.08
2023-04-16T15:11:39.626Z,22.42
2023-04-16T15:14:06.883Z,23.10
2023-04-16T15:16:33.257Z,22.88
2023-04-16T15:18:59.561Z,22.48
2023-04-16T15:21:26.690Z,15.88
2023-04-16T15:23:53.731Z,21.27
2023-04-16T15:26:20.105Z,28.58
2023-04-16T15:28:46.397Z,21.38
2023-04-16T15:31:12.726Z,20.02
2023-04-16T15:33:39.116Z,21.75
2023-04-16T15:36:05.556Z,22.08
2023-04-16T15:38:31.871Z,23.00
2023-04-16T15:40:58.616Z,23.17
2023-04-16T15:43:26.750Z,23.05
2023-04-16T15:45:53.073Z,20.38
2023-04-16T15:48:19.296Z,19.33
2023-04-16T15:50:45.743Z,20.40
2023-04-16T15:53:12.835Z,26.48
2023-04-16T15:55:39.150Z,20.95
2023-04-16T15:58:05.560Z,25.10
2023-04-16T16:00:32.022Z,18.38
2023-04-16T16:02:58.482Z,20.40
2023-04-16T16:05:24.955Z,20.58
2023-04-16T16:07:51.416Z,23.48
2023-04-16T16:10:17.732Z,23.27
2023-04-16T16:12:43.990Z,20.27
2023-04-16T16:15:10.936Z,20.92
2023-04-16T16:17:37.278Z,21.35
2023-04-16T16:20:04.357Z,21.55
2023-04-16T16:22:30.653Z,29.42
2023-04-16T16:24:57.793Z,28.40
2023-04-16T16:27:24.381Z,22.83
2023-04-16T16:29:50.675Z,22.63
2023-04-16T16:32:16.972Z,21.35
2023-04-16T16:34:43.316Z,19.20
2023-04-16T16:37:09.577Z,28.60
2023-04-16T16:39:38.370Z,26.83
2023-04-16T16:42:05.115Z,29.30
2023-04-16T16:44:31.353Z,32.53
2023-04-16T16:46:57.727Z,25.80
2023-04-16T16:49:24.041Z,25.75
2023-04-16T16:51:50.457Z,28.10
2023-04-16T16:54:16.725Z,29.20
2023-04-16T16:56:43.001Z,23.80
2023-04-16T16:59:09.382Z,25.73
2023-04-16T17:01:36.159Z,22.40
2023-04-16T17:04:02.609Z,25.40
2023-04-16T17:06:29.080Z,30.00
2023-04-16T17:08:55.777Z,23.25
2023-04-16T17:11:22.012Z,28.83
2023-04-16T17:13:48.308Z,27.27
2023-04-16T17:16:16.617Z,32.20
2023-04-16T17:18:42.905Z,25.27
2023-04-16T17:21:09.163Z,39.40
2023-04-16T17:23:35.438Z,37.83
2023-04-16T17:26:01.781Z,30.35
2023-04-16T17:28:28.111Z,41.53
2023-04-16T17:30:56.072Z,29.50
2023-04-16T17:33:22.431Z,38.92
2023-04-16T17:35:48.739Z,27.35
2023-04-16T17:38:14.996Z,30.23
2023-04-16T17:40:41.511Z,32.63
2023-04-16T17:43:07.846Z,30.92
2023-04-16T17:45:34.166Z,34.33
2023-04-16T17:48:01.007Z,30.00
2023-04-16T17:50:27.433Z,21.38
2023-04-16T17:52:53.673Z,28.15
2023-04-16T17:55:19.961Z,25.85
2023-04-16T17:57:46.275Z,28.20
2023-04-16T18:00:12.679Z,28.65
2023-04-16T18:02:40.676Z,21.77
2023-04-16T18:05:07.628Z,23.95
2023-04-16T18:07:35.417Z,31.45
2023-04-16T18:10:01.699Z,27.60
2023-04-16T18:12:27.969Z,33.38
2023-04-16T18:14:54.236Z,25.27
2023-04-16T18:17:22.628Z,24.60
2023-04-16T18:19:48.965Z,29.20
2023-04-16T18:22:15.267Z,30.60
2023-04-16T18:24:41.705Z,30.65
2023-04-16T18:27:07.990Z,27.33
2023-04-16T18:29:34.255Z,30.85
2023-04-16T18:32:03.761Z,23.67
2023-04-16T18:34:31.382Z,30.88
2023-04-16T18:36:57.795Z,27.40
2023-04-16T18:39:24.374Z,29.75
2023-04-16T18:41:50.794Z,28.63
2023-04-16T18:44:17.683Z,32.88
2023-04-16T18:46:44.238Z,32.70
2023-04-16T18:49:10.831Z,30.45
2023-04-16T18:51:37.277Z,33.80
2023-04-16T18:54:03.605Z,36.35
2023-04-16T18:56:31.031Z,26.20
2023-04-16T18:58:57.286Z,29.83
2023-04-16T19:01:23.677Z,37.05
2023-04-16T19:03:50.131Z,36.97
2023-04-16T19:06:16.433Z,36.95
2023-04-16T19:08:42.846Z,38.42
2023-04-16T19:11:09.134Z,33.78
2023-04-16T19:13:35.575Z,30.20
2023-04-16T19:16:02.288Z,40.97
2023-04-16T19:18:28.779Z,36.47
2023-04-16T19:21:01.432Z,35.20
2023-04-16T19:23:28.111Z,35.75
2023-04-16T19:25:56.253Z,33.35
2023-04-16T19:28:23.278Z,34.22
2023-04-16T19:30:50.177Z,33.83
2023-04-16T19:33:16.481Z,35.45
2023-04-16T19:35:43.169Z,35.88
2023-04-16T19:38:10.831Z,26.30
2023-04-16T19:40:37.874Z,37.33
2023-04-16T19:43:04.157Z,36.83
2023-04-16T19:45:30.749Z,33.10
2023-04-16T19:47:57.118Z,31.45
2023-04-16T19:50:23.786Z,36.15
2023-04-16T19:52:50.096Z,33.65
2023-04-16T19:55:16.566Z,35.60
2023-04-16T19:57:42.853Z,36.30
2023-04-16T20:00:11.200Z,39.72
2023-04-16T20:02:37.758Z,39.58
2023-04-16T20:05:04.397Z,33.60
2023-04-16T20:07:30.655Z,33.38
2023-04-16T20:09:56.954Z,35.92
2023-04-16T20:12:23.213Z,38.58
2023-04-16T20:14:49.597Z,37.13
2023-04-16T20:17:17.755Z,35.38
2023-04-16T20:19:47.364Z,44.90
2023-04-16T20:22:14.822Z,40.42
2023-04-16T20:24:41.533Z,40.95
2023-04-16T20:27:07.816Z,45.03
2023-04-16T20:29:34.048Z,43.83
2023-04-16T20:32:00.462Z,40.70
2023-04-16T20:34:27.730Z,42.08
2023-04-16T20:36:54.860Z,46.30
2023-04-16T20:39:22.087Z,41.42
2023-04-16T20:41:56.489Z,42.15
2023-04-16T20:44:26.116Z,52.90
2023-04-16T20:46:54.664Z,44.35
2023-04-16T20:49:21.024Z,40.30
2023-04-16T20:51:47.296Z,45.33
2023-04-16T20:54:13.605Z,48.22
2023-04-16T20:56:39.993Z,47.20
2023-04-16T20:59:06.553Z,49.30
2023-04-16T21:01:33.126Z,49.13
2023-04-16T21:03:59.516Z,42.95
2023-04-16T21:06:25.965Z,48.00
2023-04-16T21:08:52.230Z,38.22
2023-04-16T21:11:18.472Z,37.92
2023-04-16T21:13:44.795Z,40.42
2023-04-16T21:16:12.274Z,40.50
2023-04-16T21:18:38.604Z,52.90
2023-04-16T21:21:04.944Z,50.55
2023-04-16T21:23:31.429Z,52.30
2023-04-16T21:25:57.668Z,48.83
2023-04-16T21:28:23.992Z,43.60
2023-04-16T21:30:53.224Z,52.00
2023-04-16T21:33:19.528Z,50.13
2023-04-16T21:35:50.767Z,47.92
2023-04-16T21:38:17.052Z,46.53
2023-04-16T21:40:43.347Z,37.67
2023-04-16T21:43:09.598Z,40.47
2023-04-16T21:45:35.849Z,37.65
2023-04-16T21:48:02.247Z,41.53
2023-04-16T21:50:28.599Z,40.45
2023-04-16T21:52:54.891Z,34.85
2023-04-16T21:55:21.151Z,39.72
2023-04-16T21:57:47.434Z,43.33
2023-04-16T22:00:14.362Z,39.35
2023-04-16T22:02:41.788Z,40.63
2023-04-16T22:05:09.052Z,40.22
2023-04-16T22:07:36.608Z,50.28
2023-04-16T22:10:03.489Z,37.95
2023-04-16T22:12:30.105Z,35.95
2023-04-16T22:15:02.407Z,39.72
2023-04-16T22:17:30.087Z,41.50
2023-04-16T22:19:57.285Z,40.92
2023-04-16T22:22:23.621Z,44.22
2023-04-16T22:24:49.926Z,43.33
2023-04-16T22:27:16.263Z,46.00
2023-04-16T22:29:42.649Z,40.17
2023-04-16T22:32:09.005Z,42.78
2023-04-16T22:34:35.473Z,39.05
2023-04-16T22:37:02.963Z,36.65
2023-04-16T22:39:29.668Z,46.35
2023-04-16T22:41:56.031Z,51.03
2023-04-16T22:44:22.458Z,43.83
2023-04-16T22:46:48.805Z,44.30
2023-04-16T22:49:15.129Z,43.97
2023-04-16T22:51:41.418Z,47.53
2023-04-16T22:54:09.096Z,44.85
2023-04-16T22:56:35.625Z,51.15
2023-04-16T22:59:01.931Z,48.08
2023-04-16T23:01:28.234Z,43.92
2023-04-16T23:03:54.585Z,47.50
2023-04-16T23:06:21.922Z,45.97
2023-04-16T23:08:48.283Z,47.22
2023-04-16T23:11:14.585Z,45.72
2023-04-16T23:13:42.588Z,46.47
2023-04-16T23:16:09.009Z,55.03
2023-04-16T23:18:36.587Z,49.38
2023-04-16T23:21:02.897Z,51.22
2023-04-16T23:23:29.218Z,45.67
2023-04-16T23:25:55.536Z,50.00
2023-04-16T23:28:22.265Z,44.75
2023-04-16T23:30:52.631Z,49.00
2023-04-16T23:33:18.988Z,48.95
2023-04-16T23:35:46.440Z,44.10
2023-04-16T23:38:12.790Z,50.78
2023-04-16T23:40:39.066Z,53.22
2023-04-16T23:43:05.595Z,56.28
2023-04-16T23:45:31.964Z,50.50
2023-04-16T23:47:58.347Z,55.97
2023-04-16T23:50:24.690Z,54.15
2023-04-16T23:52:50.986Z,56.80
2023-04-16T23:55:17.236Z,50.10
2023-04-16T23:57:43.464Z,66.95
